Blanks, Louisiana
Current Conditions -  °F | °C
As of 8:35 AM on Friday 31 Oct 2014 (Local Time) from KHZR Reporting Station
Clear Clear  
Wind Chill: 56°   Ceiling: Unl
Heat Index: 56°   Visibility: 10mi
Dew Point: 49°   Wind: 6mph
Humidity: 78%   Direction: 310°NW
Pressure: 30.09"   Gusts: NA
Location:  30.55°N, 91.6°W
Report Text: KHZR 311335Z AUTO 31005KT 10SM CLR 13/09 A3009 RMK AO2 T01320094
Loading
Personal Weather Stations






























Interactive Weather Map
Tropical Storm Tracking
New forecast layout! Learn more

10-Day Weather Forecast

Advertisements
Track Severe Weather on mobile